sensor_id;sensor_type;location;lat;lon;timestamp;P1;durP1;ratioP1;P2;durP2;ratioP2
14770;SDS011;7477;45.222;5.688;2023-03-09T00:00:12;10.30;;;7.15;;
14770;SDS011;7477;45.222;5.688;2023-03-09T00:03:34;9.95;;;7.47;;
14770;SDS011;7477;45.222;5.688;2023-03-09T00:06:54;12.45;;;7.22;;
14770;SDS011;7477;45.222;5.688;2023-03-09T00:10:14;8.38;;;6.20;;
14770;SDS011;7477;45.222;5.688;2023-03-09T00:13:34;10.45;;;7.85;;
14770;SDS011;7477;45.222;5.688;2023-03-09T00:16:54;9.60;;;7.25;;
14770;SDS011;7477;45.222;5.688;2023-03-09T00:20:13;9.15;;;7.45;;
14770;SDS011;7477;45.222;5.688;2023-03-09T00:23:38;14.23;;;8.23;;
14770;SDS011;7477;45.222;5.688;2023-03-09T00:26:58;9.68;;;7.50;;
14770;SDS011;7477;45.222;5.688;2023-03-09T00:30:19;10.60;;;7.93;;
14770;SDS011;7477;45.222;5.688;2023-03-09T00:33:38;17.23;;;9.93;;
14770;SDS011;7477;45.222;5.688;2023-03-09T00:36:57;21.52;;;13.23;;
14770;SDS011;7477;45.222;5.688;2023-03-09T00:40:17;11.70;;;8.23;;
14770;SDS011;7477;45.222;5.688;2023-03-09T00:43:37;11.27;;;8.30;;
14770;SDS011;7477;45.222;5.688;2023-03-09T00:46:56;13.25;;;8.20;;
14770;SDS011;7477;45.222;5.688;2023-03-09T00:50:15;13.57;;;8.95;;
14770;SDS011;7477;45.222;5.688;2023-03-09T00:53:35;11.90;;;8.50;;
14770;SDS011;7477;45.222;5.688;2023-03-09T00:56:55;14.70;;;8.52;;
14770;SDS011;7477;45.222;5.688;2023-03-09T01:00:14;19.05;;;10.82;;
14770;SDS011;7477;45.222;5.688;2023-03-09T01:03:35;16.75;;;9.07;;
14770;SDS011;7477;45.222;5.688;2023-03-09T01:06:55;11.20;;;7.78;;
14770;SDS011;7477;45.222;5.688;2023-03-09T01:10:14;12.18;;;8.70;;
14770;SDS011;7477;45.222;5.688;2023-03-09T01:13:34;13.45;;;8.10;;
14770;SDS011;7477;45.222;5.688;2023-03-09T01:16:54;11.68;;;7.75;;
14770;SDS011;7477;45.222;5.688;2023-03-09T01:20:14;13.52;;;8.63;;
14770;SDS011;7477;45.222;5.688;2023-03-09T01:23:35;11.60;;;7.70;;
14770;SDS011;7477;45.222;5.688;2023-03-09T01:26:56;11.10;;;7.88;;
14770;SDS011;7477;45.222;5.688;2023-03-09T01:30:15;10.48;;;7.35;;
14770;SDS011;7477;45.222;5.688;2023-03-09T01:33:34;10.68;;;8.20;;
14770;SDS011;7477;45.222;5.688;2023-03-09T01:36:54;12.32;;;8.25;;
14770;SDS011;7477;45.222;5.688;2023-03-09T01:40:18;10.55;;;7.70;;
14770;SDS011;7477;45.222;5.688;2023-03-09T01:43:41;13.38;;;8.43;;
14770;SDS011;7477;45.222;5.688;2023-03-09T01:47:02;13.05;;;8.10;;
14770;SDS011;7477;45.222;5.688;2023-03-09T01:50:32;13.93;;;7.85;;
14770;SDS011;7477;45.222;5.688;2023-03-09T01:53:53;10.10;;;7.47;;
14770;SDS011;7477;45.222;5.688;2023-03-09T01:57:24;11.00;;;7.10;;
14770;SDS011;7477;45.222;5.688;2023-03-09T02:00:46;10.60;;;7.55;;
14770;SDS011;7477;45.222;5.688;2023-03-09T02:04:10;15.77;;;7.95;;
14770;SDS011;7477;45.222;5.688;2023-03-09T02:07:35;12.45;;;8.80;;
14770;SDS011;7477;45.222;5.688;2023-03-09T02:10:59;9.75;;;7.10;;
14770;SDS011;7477;45.222;5.688;2023-03-09T02:14:22;11.15;;;7.47;;
14770;SDS011;7477;45.222;5.688;2023-03-09T02:17:43;13.07;;;7.93;;
14770;SDS011;7477;45.222;5.688;2023-03-09T02:28:03;10.48;;;7.07;;
14770;SDS011;7477;45.222;5.688;2023-03-09T02:31:24;8.90;;;5.82;;
14770;SDS011;7477;45.222;5.688;2023-03-09T02:34:43;8.48;;;6.18;;
14770;SDS011;7477;45.222;5.688;2023-03-09T02:38:03;11.15;;;7.20;;
14770;SDS011;7477;45.222;5.688;2023-03-09T02:41:28;8.48;;;5.30;;
14770;SDS011;7477;45.222;5.688;2023-03-09T02:44:48;10.95;;;6.18;;
14770;SDS011;7477;45.222;5.688;2023-03-09T02:48:08;7.65;;;5.15;;
14770;SDS011;7477;45.222;5.688;2023-03-09T02:51:27;10.32;;;4.95;;
14770;SDS011;7477;45.222;5.688;2023-03-09T02:54:46;8.27;;;6.35;;
14770;SDS011;7477;45.222;5.688;2023-03-09T02:58:06;7.95;;;6.03;;
14770;SDS011;7477;45.222;5.688;2023-03-09T03:01:25;11.95;;;6.32;;
14770;SDS011;7477;45.222;5.688;2023-03-09T03:04:44;9.80;;;6.13;;
14770;SDS011;7477;45.222;5.688;2023-03-09T03:08:03;11.93;;;6.28;;
14770;SDS011;7477;45.222;5.688;2023-03-09T03:11:22;7.50;;;5.45;;
14770;SDS011;7477;45.222;5.688;2023-03-09T03:14:42;10.23;;;6.15;;
14770;SDS011;7477;45.222;5.688;2023-03-09T03:18:01;11.57;;;5.82;;
14770;SDS011;7477;45.222;5.688;2023-03-09T03:21:21;5.60;;;4.15;;
14770;SDS011;7477;45.222;5.688;2023-03-09T03:24:40;8.98;;;5.57;;
14770;SDS011;7477;45.222;5.688;2023-03-09T03:27:59;10.40;;;7.22;;
14770;SDS011;7477;45.222;5.688;2023-03-09T03:31:18;9.27;;;6.07;;
14770;SDS011;7477;45.222;5.688;2023-03-09T03:34:38;11.10;;;6.50;;
14770;SDS011;7477;45.222;5.688;2023-03-09T03:37:57;10.45;;;6.95;;
14770;SDS011;7477;45.222;5.688;2023-03-09T03:41:17;11.57;;;6.38;;
14770;SDS011;7477;45.222;5.688;2023-03-09T03:44:37;8.40;;;6.20;;
14770;SDS011;7477;45.222;5.688;2023-03-09T03:47:56;9.20;;;6.15;;
14770;SDS011;7477;45.222;5.688;2023-03-09T03:51:15;9.82;;;7.15;;
14770;SDS011;7477;45.222;5.688;2023-03-09T03:54:35;13.48;;;7.22;;
14770;SDS011;7477;45.222;5.688;2023-03-09T03:57:54;11.18;;;7.35;;
14770;SDS011;7477;45.222;5.688;2023-03-09T04:01:14;11.98;;;7.50;;
14770;SDS011;7477;45.222;5.688;2023-03-09T04:04:33;10.57;;;7.15;;
14770;SDS011;7477;45.222;5.688;2023-03-09T04:07:52;9.43;;;7.05;;
14770;SDS011;7477;45.222;5.688;2023-03-09T04:11:11;9.75;;;7.30;;
14770;SDS011;7477;45.222;5.688;2023-03-09T04:14:31;11.00;;;7.50;;
14770;SDS011;7477;45.222;5.688;2023-03-09T04:17:54;7.65;;;6.20;;
14770;SDS011;7477;45.222;5.688;2023-03-09T04:21:13;6.20;;;4.18;;
14770;SDS011;7477;45.222;5.688;2023-03-09T04:24:32;11.00;;;5.75;;
14770;SDS011;7477;45.222;5.688;2023-03-09T04:27:51;9.15;;;5.60;;
14770;SDS011;7477;45.222;5.688;2023-03-09T04:31:11;9.70;;;6.10;;
14770;SDS011;7477;45.222;5.688;2023-03-09T04:34:30;10.25;;;7.05;;
14770;SDS011;7477;45.222;5.688;2023-03-09T04:37:49;10.75;;;6.60;;
14770;SDS011;7477;45.222;5.688;2023-03-09T04:41:10;9.18;;;6.88;;
14770;SDS011;7477;45.222;5.688;2023-03-09T04:44:30;8.82;;;5.05;;
14770;SDS011;7477;45.222;5.688;2023-03-09T04:47:49;9.23;;;5.68;;
14770;SDS011;7477;45.222;5.688;2023-03-09T04:51:09;10.48;;;5.80;;
14770;SDS011;7477;45.222;5.688;2023-03-09T04:54:28;9.05;;;5.38;;
14770;SDS011;7477;45.222;5.688;2023-03-09T04:57:47;8.45;;;5.45;;
14770;SDS011;7477;45.222;5.688;2023-03-09T05:01:07;7.10;;;4.65;;
14770;SDS011;7477;45.222;5.688;2023-03-09T05:04:26;8.15;;;5.72;;
14770;SDS011;7477;45.222;5.688;2023-03-09T05:07:46;7.50;;;5.95;;
14770;SDS011;7477;45.222;5.688;2023-03-09T05:11:06;6.38;;;4.78;;
14770;SDS011;7477;45.222;5.688;2023-03-09T05:14:25;9.02;;;5.70;;
14770;SDS011;7477;45.222;5.688;2023-03-09T05:17:44;6.97;;;5.13;;
14770;SDS011;7477;45.222;5.688;2023-03-09T05:21:04;7.10;;;2.60;;
14770;SDS011;7477;45.222;5.688;2023-03-09T05:24:27;4.20;;;2.90;;
14770;SDS011;7477;45.222;5.688;2023-03-09T05:27:47;6.90;;;4.43;;
14770;SDS011;7477;45.222;5.688;2023-03-09T05:31:10;6.15;;;4.28;;
14770;SDS011;7477;45.222;5.688;2023-03-09T05:34:30;6.07;;;3.88;;
14770;SDS011;7477;45.222;5.688;2023-03-09T05:37:49;5.53;;;3.05;;
14770;SDS011;7477;45.222;5.688;2023-03-09T05:41:09;4.95;;;3.05;;
14770;SDS011;7477;45.222;5.688;2023-03-09T05:44:28;4.93;;;3.85;;
14770;SDS011;7477;45.222;5.688;2023-03-09T05:47:47;4.13;;;3.15;;
14770;SDS011;7477;45.222;5.688;2023-03-09T05:51:07;7.15;;;3.83;;
14770;SDS011;7477;45.222;5.688;2023-03-09T05:54:27;7.13;;;4.47;;
14770;SDS011;7477;45.222;5.688;2023-03-09T05:57:47;5.57;;;3.92;;
14770;SDS011;7477;45.222;5.688;2023-03-09T06:01:14;4.70;;;3.28;;
14770;SDS011;7477;45.222;5.688;2023-03-09T06:04:38;5.13;;;3.38;;
14770;SDS011;7477;45.222;5.688;2023-03-09T06:07:57;4.88;;;3.22;;
14770;SDS011;7477;45.222;5.688;2023-03-09T06:11:17;8.45;;;6.00;;
14770;SDS011;7477;45.222;5.688;2023-03-09T06:14:36;5.03;;;4.00;;
14770;SDS011;7477;45.222;5.688;2023-03-09T06:17:55;7.13;;;4.97;;
14770;SDS011;7477;45.222;5.688;2023-03-09T06:21:15;6.85;;;5.38;;
14770;SDS011;7477;45.222;5.688;2023-03-09T06:24:34;11.95;;;7.10;;
14770;SDS011;7477;45.222;5.688;2023-03-09T06:27:54;8.18;;;5.07;;
14770;SDS011;7477;45.222;5.688;2023-03-09T06:31:14;8.32;;;5.13;;
14770;SDS011;7477;45.222;5.688;2023-03-09T06:34:35;16.50;;;9.32;;
14770;SDS011;7477;45.222;5.688;2023-03-09T06:37:54;12.68;;;7.80;;
14770;SDS011;7477;45.222;5.688;2023-03-09T06:41:14;8.82;;;6.43;;
14770;SDS011;7477;45.222;5.688;2023-03-09T06:44:34;6.55;;;5.68;;
14770;SDS011;7477;45.222;5.688;2023-03-09T06:47:54;8.68;;;5.75;;
14770;SDS011;7477;45.222;5.688;2023-03-09T06:51:15;9.82;;;6.55;;
14770;SDS011;7477;45.222;5.688;2023-03-09T06:54:36;9.27;;;6.35;;
14770;SDS011;7477;45.222;5.688;2023-03-09T06:57:56;9.40;;;6.95;;
14770;SDS011;7477;45.222;5.688;2023-03-09T07:01:15;12.35;;;6.63;;
14770;SDS011;7477;45.222;5.688;2023-03-09T07:04:35;11.13;;;7.40;;
14770;SDS011;7477;45.222;5.688;2023-03-09T07:07:55;12.02;;;7.47;;
14770;SDS011;7477;45.222;5.688;2023-03-09T07:11:14;11.05;;;7.38;;
14770;SDS011;7477;45.222;5.688;2023-03-09T07:14:33;12.75;;;7.97;;
14770;SDS011;7477;45.222;5.688;2023-03-09T07:17:53;11.63;;;7.13;;
14770;SDS011;7477;45.222;5.688;2023-03-09T07:21:12;10.27;;;7.03;;
14770;SDS011;7477;45.222;5.688;2023-03-09T07:24:35;13.45;;;8.07;;
14770;SDS011;7477;45.222;5.688;2023-03-09T07:27:55;9.85;;;7.68;;
14770;SDS011;7477;45.222;5.688;2023-03-09T07:31:14;9.40;;;7.30;;
14770;SDS011;7477;45.222;5.688;2023-03-09T07:34:34;14.82;;;9.25;;
14770;SDS011;7477;45.222;5.688;2023-03-09T07:37:53;13.18;;;9.70;;
14770;SDS011;7477;45.222;5.688;2023-03-09T07:41:13;17.15;;;11.07;;
14770;SDS011;7477;45.222;5.688;2023-03-09T07:44:32;16.08;;;9.75;;
14770;SDS011;7477;45.222;5.688;2023-03-09T07:47:52;10.88;;;8.20;;
14770;SDS011;7477;45.222;5.688;2023-03-09T07:51:12;15.45;;;8.02;;
14770;SDS011;7477;45.222;5.688;2023-03-09T07:54:32;9.38;;;6.57;;
14770;SDS011;7477;45.222;5.688;2023-03-09T07:57:52;13.00;;;8.88;;
14770;SDS011;7477;45.222;5.688;2023-03-09T08:01:13;13.05;;;7.50;;
14770;SDS011;7477;45.222;5.688;2023-03-09T08:04:34;13.00;;;7.65;;
14770;SDS011;7477;45.222;5.688;2023-03-09T08:07:54;12.60;;;7.72;;
14770;SDS011;7477;45.222;5.688;2023-03-09T08:11:13;10.75;;;7.50;;
14770;SDS011;7477;45.222;5.688;2023-03-09T08:14:33;9.88;;;6.75;;
14770;SDS011;7477;45.222;5.688;2023-03-09T08:17:52;12.40;;;7.55;;
14770;SDS011;7477;45.222;5.688;2023-03-09T08:21:12;11.75;;;7.53;;
14770;SDS011;7477;45.222;5.688;2023-03-09T08:24:33;9.57;;;6.90;;
14770;SDS011;7477;45.222;5.688;2023-03-09T08:27:52;14.27;;;7.63;;
14770;SDS011;7477;45.222;5.688;2023-03-09T08:31:13;10.60;;;6.47;;
14770;SDS011;7477;45.222;5.688;2023-03-09T08:34:35;13.68;;;7.38;;
14770;SDS011;7477;45.222;5.688;2023-03-09T08:37:55;8.98;;;7.45;;
14770;SDS011;7477;45.222;5.688;2023-03-09T08:41:15;13.75;;;6.22;;
14770;SDS011;7477;45.222;5.688;2023-03-09T08:44:35;13.30;;;6.90;;
14770;SDS011;7477;45.222;5.688;2023-03-09T08:47:54;8.45;;;6.72;;
14770;SDS011;7477;45.222;5.688;2023-03-09T08:51:13;11.15;;;6.72;;
14770;SDS011;7477;45.222;5.688;2023-03-09T08:54:32;6.05;;;4.97;;
14770;SDS011;7477;45.222;5.688;2023-03-09T08:57:52;6.15;;;4.20;;
14770;SDS011;7477;45.222;5.688;2023-03-09T09:01:12;6.53;;;3.53;;
14770;SDS011;7477;45.222;5.688;2023-03-09T09:04:31;5.05;;;3.15;;
14770;SDS011;7477;45.222;5.688;2023-03-09T09:07:51;7.90;;;5.72;;
14770;SDS011;7477;45.222;5.688;2023-03-09T09:11:12;5.80;;;4.60;;
14770;SDS011;7477;45.222;5.688;2023-03-09T09:14:33;13.30;;;8.30;;
14770;SDS011;7477;45.222;5.688;2023-03-09T09:17:53;21.20;;;9.25;;
14770;SDS011;7477;45.222;5.688;2023-03-09T09:21:14;17.63;;;9.50;;
14770;SDS011;7477;45.222;5.688;2023-03-09T09:24:35;13.73;;;9.30;;
14770;SDS011;7477;45.222;5.688;2023-03-09T09:27:55;16.38;;;8.43;;
14770;SDS011;7477;45.222;5.688;2023-03-09T09:31:15;17.65;;;8.65;;
14770;SDS011;7477;45.222;5.688;2023-03-09T09:34:38;20.73;;;8.95;;
14770;SDS011;7477;45.222;5.688;2023-03-09T09:37:57;12.23;;;8.02;;
14770;SDS011;7477;45.222;5.688;2023-03-09T09:41:19;14.45;;;8.38;;
14770;SDS011;7477;45.222;5.688;2023-03-09T09:44:50;10.98;;;7.35;;
14770;SDS011;7477;45.222;5.688;2023-03-09T09:48:12;11.15;;;6.28;;
14770;SDS011;7477;45.222;5.688;2023-03-09T09:51:43;8.48;;;6.95;;
14770;SDS011;7477;45.222;5.688;2023-03-09T09:55:28;8.18;;;5.95;;
14770;SDS011;7477;45.222;5.688;2023-03-09T10:09:28;14.43;;;7.47;;
14770;SDS011;7477;45.222;5.688;2023-03-09T10:12:51;17.80;;;7.40;;
14770;SDS011;7477;45.222;5.688;2023-03-09T10:16:18;10.77;;;6.70;;
14770;SDS011;7477;45.222;5.688;2023-03-09T10:19:48;12.13;;;6.18;;
14770;SDS011;7477;45.222;5.688;2023-03-09T10:26:41;11.93;;;7.80;;
14770;SDS011;7477;45.222;5.688;2023-03-09T10:33:45;8.55;;;5.90;;
14770;SDS011;7477;45.222;5.688;2023-03-09T10:37:15;10.68;;;6.15;;
14770;SDS011;7477;45.222;5.688;2023-03-09T10:40:37;8.50;;;5.97;;
14770;SDS011;7477;45.222;5.688;2023-03-09T10:44:02;9.27;;;5.57;;
14770;SDS011;7477;45.222;5.688;2023-03-09T10:47:23;6.75;;;4.78;;
14770;SDS011;7477;45.222;5.688;2023-03-09T10:50:59;8.98;;;4.30;;
14770;SDS011;7477;45.222;5.688;2023-03-09T10:57:55;11.52;;;5.60;;
14770;SDS011;7477;45.222;5.688;2023-03-09T11:01:21;6.93;;;3.50;;
14770;SDS011;7477;45.222;5.688;2023-03-09T11:04:41;8.10;;;4.85;;
14770;SDS011;7477;45.222;5.688;2023-03-09T11:08:00;10.88;;;4.82;;
14770;SDS011;7477;45.222;5.688;2023-03-09T11:11:26;11.00;;;7.22;;
14770;SDS011;7477;45.222;5.688;2023-03-09T11:18:26;11.50;;;5.40;;
14770;SDS011;7477;45.222;5.688;2023-03-09T11:25:37;13.93;;;7.75;;
14770;SDS011;7477;45.222;5.688;2023-03-09T11:29:13;11.93;;;6.72;;
14770;SDS011;7477;45.222;5.688;2023-03-09T11:32:48;15.63;;;9.70;;
14770;SDS011;7477;45.222;5.688;2023-03-09T11:36:10;8.80;;;5.10;;
14770;SDS011;7477;45.222;5.688;2023-03-09T11:39:39;11.63;;;7.78;;
14770;SDS011;7477;45.222;5.688;2023-03-09T11:43:28;7.78;;;5.38;;
14770;SDS011;7477;45.222;5.688;2023-03-09T11:46:52;8.77;;;6.10;;
14770;SDS011;7477;45.222;5.688;2023-03-09T11:50:17;12.40;;;8.10;;
14770;SDS011;7477;45.222;5.688;2023-03-09T11:57:14;11.20;;;6.47;;
14770;SDS011;7477;45.222;5.688;2023-03-09T12:00:37;6.45;;;4.65;;
14770;SDS011;7477;45.222;5.688;2023-03-09T12:04:03;9.45;;;6.40;;
14770;SDS011;7477;45.222;5.688;2023-03-09T12:07:29;9.05;;;4.75;;
14770;SDS011;7477;45.222;5.688;2023-03-09T12:14:36;6.30;;;4.78;;
14770;SDS011;7477;45.222;5.688;2023-03-09T12:18:06;6.70;;;4.10;;
14770;SDS011;7477;45.222;5.688;2023-03-09T12:21:35;5.30;;;3.90;;
14770;SDS011;7477;45.222;5.688;2023-03-09T12:25:19;7.20;;;3.80;;
14770;SDS011;7477;45.222;5.688;2023-03-09T12:28:41;6.38;;;3.95;;
14770;SDS011;7477;45.222;5.688;2023-03-09T12:42:41;4.43;;;2.58;;
14770;SDS011;7477;45.222;5.688;2023-03-09T12:50:00;7.82;;;3.00;;
14770;SDS011;7477;45.222;5.688;2023-03-09T12:53:23;9.35;;;3.20;;
14770;SDS011;7477;45.222;5.688;2023-03-09T12:56:44;6.90;;;2.47;;
14770;SDS011;7477;45.222;5.688;2023-03-09T13:00:24;4.60;;;2.20;;
14770;SDS011;7477;45.222;5.688;2023-03-09T13:03:49;5.50;;;2.30;;
14770;SDS011;7477;45.222;5.688;2023-03-09T13:07:13;16.45;;;7.43;;
14770;SDS011;7477;45.222;5.688;2023-03-09T13:10:37;6.93;;;4.30;;
14770;SDS011;7477;45.222;5.688;2023-03-09T13:14:04;5.95;;;3.10;;
14770;SDS011;7477;45.222;5.688;2023-03-09T13:20:49;6.15;;;2.78;;
14770;SDS011;7477;45.222;5.688;2023-03-09T13:27:39;6.88;;;2.85;;
14770;SDS011;7477;45.222;5.688;2023-03-09T13:31:07;7.13;;;2.92;;
14770;SDS011;7477;45.222;5.688;2023-03-09T13:34:38;8.05;;;2.75;;
14770;SDS011;7477;45.222;5.688;2023-03-09T13:37:58;8.57;;;3.33;;
14770;SDS011;7477;45.222;5.688;2023-03-09T13:41:22;8.18;;;2.10;;
14770;SDS011;7477;45.222;5.688;2023-03-09T13:44:45;3.92;;;2.10;;
14770;SDS011;7477;45.222;5.688;2023-03-09T13:48:05;5.32;;;2.40;;
14770;SDS011;7477;45.222;5.688;2023-03-09T13:51:36;7.95;;;2.20;;
14770;SDS011;7477;45.222;5.688;2023-03-09T13:55:00;6.35;;;2.53;;
14770;SDS011;7477;45.222;5.688;2023-03-09T13:58:23;5.15;;;2.35;;
14770;SDS011;7477;45.222;5.688;2023-03-09T14:01:46;6.70;;;2.05;;
14770;SDS011;7477;45.222;5.688;2023-03-09T14:08:43;4.50;;;2.22;;
14770;SDS011;7477;45.222;5.688;2023-03-09T14:12:15;3.20;;;1.60;;
14770;SDS011;7477;45.222;5.688;2023-03-09T14:15:47;3.50;;;1.77;;
14770;SDS011;7477;45.222;5.688;2023-03-09T14:19:34;3.95;;;1.70;;
14770;SDS011;7477;45.222;5.688;2023-03-09T14:22:53;2.13;;;1.30;;
14770;SDS011;7477;45.222;5.688;2023-03-09T14:26:12;3.83;;;1.30;;
14770;SDS011;7477;45.222;5.688;2023-03-09T14:29:43;4.75;;;1.48;;
14770;SDS011;7477;45.222;5.688;2023-03-09T14:33:03;2.65;;;1.38;;
14770;SDS011;7477;45.222;5.688;2023-03-09T14:36:24;1.63;;;1.17;;
14770;SDS011;7477;45.222;5.688;2023-03-09T14:39:44;4.50;;;1.50;;
14770;SDS011;7477;45.222;5.688;2023-03-09T14:43:21;2.15;;;1.58;;
14770;SDS011;7477;45.222;5.688;2023-03-09T14:46:51;2.50;;;1.20;;
14770;SDS011;7477;45.222;5.688;2023-03-09T14:50:15;2.22;;;1.10;;
14770;SDS011;7477;45.222;5.688;2023-03-09T14:53:35;5.20;;;1.80;;
14770;SDS011;7477;45.222;5.688;2023-03-09T14:56:55;2.60;;;1.50;;
14770;SDS011;7477;45.222;5.688;2023-03-09T15:03:41;6.15;;;1.80;;
14770;SDS011;7477;45.222;5.688;2023-03-09T15:07:00;1.92;;;1.33;;
14770;SDS011;7477;45.222;5.688;2023-03-09T15:10:22;2.00;;;1.20;;
14770;SDS011;7477;45.222;5.688;2023-03-09T15:13:43;6.18;;;1.60;;
14770;SDS011;7477;45.222;5.688;2023-03-09T15:17:03;3.10;;;1.23;;
14770;SDS011;7477;45.222;5.688;2023-03-09T15:20:24;3.65;;;1.35;;
14770;SDS011;7477;45.222;5.688;2023-03-09T15:23:45;3.75;;;1.48;;
14770;SDS011;7477;45.222;5.688;2023-03-09T15:27:05;3.05;;;1.25;;
14770;SDS011;7477;45.222;5.688;2023-03-09T15:30:25;2.60;;;1.10;;
14770;SDS011;7477;45.222;5.688;2023-03-09T15:33:44;2.15;;;1.25;;
14770;SDS011;7477;45.222;5.688;2023-03-09T15:37:03;3.28;;;1.02;;
14770;SDS011;7477;45.222;5.688;2023-03-09T15:40:23;2.90;;;1.40;;
14770;SDS011;7477;45.222;5.688;2023-03-09T15:43:44;3.28;;;1.70;;
14770;SDS011;7477;45.222;5.688;2023-03-09T15:47:04;4.00;;;1.50;;
14770;SDS011;7477;45.222;5.688;2023-03-09T15:50:23;3.08;;;1.35;;
14770;SDS011;7477;45.222;5.688;2023-03-09T15:53:43;4.18;;;1.30;;
14770;SDS011;7477;45.222;5.688;2023-03-09T15:57:02;2.75;;;1.67;;
14770;SDS011;7477;45.222;5.688;2023-03-09T16:00:23;3.28;;;2.47;;
14770;SDS011;7477;45.222;5.688;2023-03-09T16:03:44;3.60;;;1.80;;
14770;SDS011;7477;45.222;5.688;2023-03-09T16:07:08;6.15;;;2.30;;
14770;SDS011;7477;45.222;5.688;2023-03-09T16:10:28;3.13;;;1.45;;
14770;SDS011;7477;45.222;5.688;2023-03-09T16:13:48;4.68;;;1.70;;
14770;SDS011;7477;45.222;5.688;2023-03-09T16:17:07;5.05;;;1.40;;
14770;SDS011;7477;45.222;5.688;2023-03-09T16:20:27;4.32;;;2.00;;
14770;SDS011;7477;45.222;5.688;2023-03-09T16:23:46;6.05;;;2.20;;
14770;SDS011;7477;45.222;5.688;2023-03-09T16:27:06;6.50;;;1.45;;
14770;SDS011;7477;45.222;5.688;2023-03-09T16:30:25;7.15;;;2.00;;
14770;SDS011;7477;45.222;5.688;2023-03-09T16:33:45;8.45;;;1.85;;
14770;SDS011;7477;45.222;5.688;2023-03-09T16:37:06;6.13;;;1.85;;
14770;SDS011;7477;45.222;5.688;2023-03-09T16:40:25;3.72;;;1.83;;
14770;SDS011;7477;45.222;5.688;2023-03-09T16:43:45;3.17;;;1.90;;
14770;SDS011;7477;45.222;5.688;2023-03-09T16:47:04;5.93;;;2.08;;
14770;SDS011;7477;45.222;5.688;2023-03-09T16:50:27;6.40;;;1.80;;
14770;SDS011;7477;45.222;5.688;2023-03-09T16:53:49;4.32;;;1.75;;
14770;SDS011;7477;45.222;5.688;2023-03-09T16:57:09;4.70;;;1.73;;
14770;SDS011;7477;45.222;5.688;2023-03-09T17:00:29;3.13;;;1.55;;
14770;SDS011;7477;45.222;5.688;2023-03-09T17:03:49;3.92;;;1.77;;
14770;SDS011;7477;45.222;5.688;2023-03-09T17:07:08;4.35;;;2.25;;
14770;SDS011;7477;45.222;5.688;2023-03-09T17:10:28;2.90;;;1.90;;
14770;SDS011;7477;45.222;5.688;2023-03-09T17:13:49;5.28;;;2.60;;
14770;SDS011;7477;45.222;5.688;2023-03-09T17:17:09;6.20;;;2.35;;
14770;SDS011;7477;45.222;5.688;2023-03-09T17:20:29;5.65;;;2.38;;
14770;SDS011;7477;45.222;5.688;2023-03-09T17:23:48;4.07;;;1.90;;
14770;SDS011;7477;45.222;5.688;2023-03-09T17:27:08;5.72;;;2.03;;
14770;SDS011;7477;45.222;5.688;2023-03-09T17:30:28;8.02;;;2.45;;
14770;SDS011;7477;45.222;5.688;2023-03-09T17:33:47;7.43;;;2.08;;
14770;SDS011;7477;45.222;5.688;2023-03-09T17:37:06;4.57;;;2.45;;
14770;SDS011;7477;45.222;5.688;2023-03-09T17:40:25;6.18;;;2.17;;
14770;SDS011;7477;45.222;5.688;2023-03-09T17:43:45;7.88;;;2.17;;
14770;SDS011;7477;45.222;5.688;2023-03-09T17:47:05;7.05;;;2.50;;
14770;SDS011;7477;45.222;5.688;2023-03-09T17:50:25;6.65;;;2.63;;
14770;SDS011;7477;45.222;5.688;2023-03-09T17:53:44;4.97;;;2.20;;
14770;SDS011;7477;45.222;5.688;2023-03-09T17:57:04;2.95;;;1.85;;
14770;SDS011;7477;45.222;5.688;2023-03-09T18:00:27;2.95;;;1.80;;
14770;SDS011;7477;45.222;5.688;2023-03-09T18:03:55;6.95;;;4.63;;
14770;SDS011;7477;45.222;5.688;2023-03-09T18:07:18;2.28;;;1.63;;
14770;SDS011;7477;45.222;5.688;2023-03-09T18:10:39;4.32;;;2.35;;
14770;SDS011;7477;45.222;5.688;2023-03-09T18:14:00;6.35;;;3.05;;
14770;SDS011;7477;45.222;5.688;2023-03-09T18:17:20;7.38;;;2.28;;
14770;SDS011;7477;45.222;5.688;2023-03-09T18:20:40;3.03;;;2.20;;
14770;SDS011;7477;45.222;5.688;2023-03-09T18:24:00;5.38;;;2.38;;
14770;SDS011;7477;45.222;5.688;2023-03-09T18:27:19;5.00;;;3.10;;
14770;SDS011;7477;45.222;5.688;2023-03-09T18:30:39;6.75;;;4.07;;
14770;SDS011;7477;45.222;5.688;2023-03-09T18:33:58;4.50;;;2.88;;
14770;SDS011;7477;45.222;5.688;2023-03-09T18:37:19;4.43;;;2.40;;
14770;SDS011;7477;45.222;5.688;2023-03-09T18:40:39;10.80;;;4.88;;
14770;SDS011;7477;45.222;5.688;2023-03-09T18:43:58;15.68;;;10.38;;
14770;SDS011;7477;45.222;5.688;2023-03-09T18:47:18;9.38;;;4.70;;
14770;SDS011;7477;45.222;5.688;2023-03-09T18:50:39;6.40;;;3.60;;
14770;SDS011;7477;45.222;5.688;2023-03-09T18:53:59;5.25;;;3.05;;
14770;SDS011;7477;45.222;5.688;2023-03-09T18:57:19;4.10;;;3.35;;
14770;SDS011;7477;45.222;5.688;2023-03-09T19:00:39;4.38;;;3.08;;
14770;SDS011;7477;45.222;5.688;2023-03-09T19:03:59;4.82;;;2.70;;
14770;SDS011;7477;45.222;5.688;2023-03-09T19:07:18;7.38;;;3.15;;
14770;SDS011;7477;45.222;5.688;2023-03-09T19:10:41;5.90;;;2.65;;
14770;SDS011;7477;45.222;5.688;2023-03-09T19:14:00;4.97;;;3.35;;
14770;SDS011;7477;45.222;5.688;2023-03-09T19:17:20;6.43;;;2.50;;
14770;SDS011;7477;45.222;5.688;2023-03-09T19:20:40;3.30;;;2.42;;
14770;SDS011;7477;45.222;5.688;2023-03-09T19:24:00;2.72;;;2.05;;
14770;SDS011;7477;45.222;5.688;2023-03-09T19:27:19;4.93;;;2.28;;
14770;SDS011;7477;45.222;5.688;2023-03-09T19:30:39;5.68;;;3.00;;
14770;SDS011;7477;45.222;5.688;2023-03-09T19:33:58;10.32;;;4.38;;
14770;SDS011;7477;45.222;5.688;2023-03-09T19:37:18;4.38;;;2.45;;
14770;SDS011;7477;45.222;5.688;2023-03-09T19:40:37;4.90;;;2.25;;
14770;SDS011;7477;45.222;5.688;2023-03-09T19:43:56;3.10;;;1.90;;
14770;SDS011;7477;45.222;5.688;2023-03-09T19:47:16;6.65;;;1.90;;
14770;SDS011;7477;45.222;5.688;2023-03-09T19:50:35;4.43;;;1.92;;
14770;SDS011;7477;45.222;5.688;2023-03-09T19:53:55;6.05;;;2.22;;
14770;SDS011;7477;45.222;5.688;2023-03-09T19:57:15;7.90;;;5.35;;
14770;SDS011;7477;45.222;5.688;2023-03-09T20:00:34;6.47;;;4.18;;
14770;SDS011;7477;45.222;5.688;2023-03-09T20:03:54;11.88;;;6.65;;
14770;SDS011;7477;45.222;5.688;2023-03-09T20:07:15;6.82;;;3.63;;
14770;SDS011;7477;45.222;5.688;2023-03-09T20:10:39;7.28;;;3.05;;
14770;SDS011;7477;45.222;5.688;2023-03-09T20:13:58;4.68;;;2.75;;
14770;SDS011;7477;45.222;5.688;2023-03-09T20:17:17;4.10;;;1.80;;
14770;SDS011;7477;45.222;5.688;2023-03-09T20:20:37;4.20;;;2.47;;
14770;SDS011;7477;45.222;5.688;2023-03-09T20:24:00;4.13;;;2.25;;
14770;SDS011;7477;45.222;5.688;2023-03-09T20:27:21;3.22;;;2.25;;
14770;SDS011;7477;45.222;5.688;2023-03-09T20:30:41;5.03;;;2.97;;
14770;SDS011;7477;45.222;5.688;2023-03-09T20:34:00;9.27;;;4.07;;
14770;SDS011;7477;45.222;5.688;2023-03-09T20:37:22;4.80;;;2.90;;
14770;SDS011;7477;45.222;5.688;2023-03-09T20:40:42;6.93;;;4.80;;
14770;SDS011;7477;45.222;5.688;2023-03-09T20:44:02;5.22;;;2.70;;
14770;SDS011;7477;45.222;5.688;2023-03-09T20:47:23;4.40;;;2.95;;
14770;SDS011;7477;45.222;5.688;2023-03-09T20:50:42;6.57;;;2.95;;
14770;SDS011;7477;45.222;5.688;2023-03-09T20:54:02;6.68;;;3.20;;
14770;SDS011;7477;45.222;5.688;2023-03-09T20:57:22;6.63;;;2.97;;
14770;SDS011;7477;45.222;5.688;2023-03-09T21:00:41;9.10;;;4.20;;
14770;SDS011;7477;45.222;5.688;2023-03-09T21:04:01;5.50;;;3.22;;
14770;SDS011;7477;45.222;5.688;2023-03-09T21:07:21;6.32;;;3.20;;
14770;SDS011;7477;45.222;5.688;2023-03-09T21:10:41;6.93;;;3.72;;
14770;SDS011;7477;45.222;5.688;2023-03-09T21:14:01;8.43;;;4.53;;
14770;SDS011;7477;45.222;5.688;2023-03-09T21:17:21;8.18;;;4.53;;
14770;SDS011;7477;45.222;5.688;2023-03-09T21:20:41;6.80;;;3.75;;
14770;SDS011;7477;45.222;5.688;2023-03-09T21:24:00;7.60;;;3.80;;
14770;SDS011;7477;45.222;5.688;2023-03-09T21:27:19;11.43;;;4.45;;
14770;SDS011;7477;45.222;5.688;2023-03-09T21:30:40;6.75;;;4.72;;
14770;SDS011;7477;45.222;5.688;2023-03-09T21:33:59;9.10;;;4.18;;
14770;SDS011;7477;45.222;5.688;2023-03-09T21:37:19;10.27;;;3.78;;